Time;durP1;ratioP1;P1;durP2;ratioP2;P2;SDS_P1;SDS_P2;PMS_P1;PMS_P2;Temp;Humidity;BMP_temperature;BMP_pressure;BME280_temperature;BME280_humidity;BME280_pressure;Samples;Min_cycle;Max_cycle;Signal;HPM_P1;HPM_P2
2023/10/24 00:00:50;;;;;;;13.65;11.25;;;10.50;99.90;;;;;;5093342;28;20044;-47
2023/10/24 00:03:16;;;;;;;15.95;11.77;;;10.50;99.90;;;;;;5093118;28;20118;-47
2023/10/24 00:05:42;;;;;;;18.45;11.93;;;10.50;99.90;;;;;;5093001;28;20032;-46
2023/10/24 00:08:07;;;;;;;16.10;11.63;;;10.50;99.90;;;;;;5092917;28;20393;-47
2023/10/24 00:10:34;;;;;;;18.95;11.38;;;10.50;99.90;;;;;;5092705;28;20041;-44
2023/10/24 00:12:59;;;;;;;15.23;11.63;;;10.50;99.90;;;;;;5092759;28;20039;-46
2023/10/24 00:15:25;;;;;;;16.45;11.60;;;10.50;99.90;;;;;;5092423;28;20051;-46
2023/10/24 00:17:51;;;;;;;20.48;12.10;;;10.50;99.90;;;;;;5092978;28;20069;-49
2023/10/24 00:20:17;;;;;;;17.90;11.32;;;10.50;99.90;;;;;;5092396;28;20032;-45
2023/10/24 00:22:43;;;;;;;15.80;11.60;;;10.50;99.90;;;;;;5092645;28;20115;-47
2023/10/24 00:25:08;;;;;;;16.42;12.05;;;10.50;99.90;;;;;;5092942;28;20552;-46
2023/10/24 00:27:35;;;;;;;15.45;11.73;;;10.50;99.90;;;;;;5092610;28;20539;-48
2023/10/24 00:30:01;;;;;;;16.10;11.32;;;10.50;99.90;;;;;;5092341;28;20537;-47
2023/10/24 00:32:27;;;;;;;15.25;11.63;;;10.50;99.90;;;;;;5092444;28;20115;-46
2023/10/24 00:34:52;;;;;;;14.27;11.02;;;10.50;99.90;;;;;;5092426;28;20036;-46
2023/10/24 00:37:18;;;;;;;22.33;12.77;;;10.50;99.90;;;;;;5092767;28;20116;-44
2023/10/24 00:39:43;;;;;;;19.45;11.93;;;10.60;99.90;;;;;;5092109;28;20374;-47
2023/10/24 00:42:09;;;;;;;19.67;11.75;;;10.50;99.90;;;;;;5092184;28;20031;-46
2023/10/24 00:44:35;;;;;;;15.82;12.18;;;10.50;99.90;;;;;;5092056;28;20035;-46
2023/10/24 00:47:01;;;;;;;17.35;11.98;;;10.60;99.90;;;;;;5091874;28;20036;-47
2023/10/24 00:49:27;;;;;;;16.60;11.35;;;10.50;99.90;;;;;;5091064;28;20115;-47
2023/10/24 00:51:55;;;;;;;19.15;12.27;;;10.60;99.90;;;;;;5092036;28;20452;-48
2023/10/24 00:54:21;;;;;;;19.80;12.52;;;10.50;99.90;;;;;;5092091;28;20036;-47
2023/10/24 00:56:50;;;;;;;17.83;12.43;;;10.60;99.90;;;;;;5091995;28;20055;-46
2023/10/24 00:59:19;;;;;;;17.05;12.35;;;10.50;99.90;;;;;;5092113;28;20059;-48
2023/10/24 01:01:45;;;;;;;17.20;12.68;;;10.50;99.90;;;;;;5091948;28;20040;-49
2023/10/24 01:04:12;;;;;;;22.35;13.02;;;10.50;99.90;;;;;;5091768;28;20036;-47
2023/10/24 01:06:38;;;;;;;17.23;13.20;;;10.50;99.90;;;;;;5091592;28;20111;-49
2023/10/24 01:09:05;;;;;;;26.65;12.63;;;10.50;99.90;;;;;;5091941;28;20107;-46
2023/10/24 01:11:32;;;;;;;18.70;12.05;;;10.50;99.90;;;;;;5091389;28;20095;-49
2023/10/24 01:14:01;;;;;;;18.05;12.90;;;10.50;99.90;;;;;;5091644;28;20040;-47
2023/10/24 01:16:28;;;;;;;18.02;12.70;;;10.40;99.90;;;;;;5091843;28;20047;-47
2023/10/24 01:18:53;;;;;;;19.45;13.02;;;10.50;99.90;;;;;;5091828;28;20035;-47
2023/10/24 01:21:19;;;;;;;19.23;12.80;;;10.50;99.90;;;;;;5091369;28;20059;-46
2023/10/24 01:23:45;;;;;;;18.63;13.05;;;10.50;99.90;;;;;;5091384;28;20032;-47
2023/10/24 01:26:14;;;;;;;23.77;13.00;;;10.40;99.90;;;;;;5091641;28;20073;-48
2023/10/24 01:28:39;;;;;;;;;;;10.40;99.90;;;;;;5092035;28;20043;-48
2023/10/24 01:31:05;;;;;;;19.05;12.18;;;10.50;99.90;;;;;;5091805;28;19916;-47
2023/10/24 01:33:31;;;;;;;21.50;13.15;;;10.50;99.90;;;;;;5091701;28;20040;-46
2023/10/24 01:35:56;;;;;;;18.45;13.07;;;10.50;99.90;;;;;;5091477;28;20036;-46
2023/10/24 01:38:22;;;;;;;18.83;14.05;;;10.40;99.90;;;;;;5091528;28;20036;-46
2023/10/24 01:40:48;;;;;;;21.02;13.45;;;10.50;99.90;;;;;;5091182;28;20477;-47
2023/10/24 01:43:13;;;;;;;20.23;13.52;;;10.50;99.90;;;;;;5073633;28;20452;-47
2023/10/24 01:45:39;;;;;;;21.63;14.23;;;10.50;99.90;;;;;;5091542;28;20036;-46
2023/10/24 01:48:05;;;;;;;21.58;13.68;;;10.50;99.90;;;;;;5091694;28;20526;-46
2023/10/24 01:50:31;;;;;;;17.15;13.20;;;10.50;99.90;;;;;;5091314;28;20441;-46
2023/10/24 01:52:58;;;;;;;22.65;14.70;;;10.50;99.90;;;;;;5091233;28;20036;-47
2023/10/24 01:55:24;;;;;;;22.25;14.40;;;10.50;99.90;;;;;;5091373;28;20209;-47
2023/10/24 01:57:50;;;;;;;26.55;15.82;;;10.50;99.90;;;;;;5090985;28;20040;-47
2023/10/24 02:00:16;;;;;;;20.45;14.40;;;10.50;99.90;;;;;;5091192;28;20093;-45
2023/10/24 02:02:42;;;;;;;20.30;13.95;;;10.50;99.90;;;;;;5091213;28;20496;-46
2023/10/24 02:05:08;;;;;;;21.83;15.18;;;10.50;99.90;;;;;;5091372;28;20108;-47
2023/10/24 02:07:34;;;;;;;20.98;14.55;;;10.50;99.90;;;;;;5091174;28;20031;-46
2023/10/24 02:09:59;;;;;;;20.60;13.90;;;10.50;99.90;;;;;;5092548;28;20423;-48
2023/10/24 02:12:25;;;;;;;20.95;14.32;;;10.50;99.90;;;;;;5095353;28;20048;-45
2023/10/24 02:14:51;;;;;;;22.02;13.45;;;10.60;99.90;;;;;;5094957;28;20082;-47
2023/10/24 02:17:17;;;;;;;20.27;14.07;;;10.50;99.90;;;;;;5095138;28;20040;-47
2023/10/24 02:19:43;;;;;;;22.35;15.13;;;10.50;99.90;;;;;;5094647;28;20043;-46
2023/10/24 02:22:09;;;;;;;20.92;14.10;;;10.60;99.90;;;;;;5094985;28;20024;-46
2023/10/24 02:24:34;;;;;;;22.70;15.43;;;10.60;99.90;;;;;;5094822;28;20527;-47
2023/10/24 02:27:00;;;;;;;22.63;15.30;;;10.50;99.90;;;;;;5094949;28;20032;-46
2023/10/24 02:29:26;;;;;;;19.27;13.70;;;10.60;99.90;;;;;;5095039;28;20358;-49
2023/10/24 02:31:51;;;;;;;19.80;13.55;;;10.60;99.90;;;;;;5095053;28;20116;-47
2023/10/24 02:34:17;;;;;;;18.00;13.73;;;10.60;99.90;;;;;;5076875;28;20133;-47
2023/10/24 02:36:43;;;;;;;19.73;13.52;;;10.60;99.90;;;;;;5094629;28;20040;-47
2023/10/24 02:39:09;;;;;;;18.08;13.32;;;10.60;99.90;;;;;;5094479;28;20370;-48
2023/10/24 02:41:35;;;;;;;19.02;14.00;;;10.70;99.90;;;;;;5094588;28;20044;-48
2023/10/24 02:44:01;;;;;;;16.83;13.60;;;10.60;99.90;;;;;;5094508;28;20036;-49
2023/10/24 02:46:26;;;;;;;23.25;14.32;;;10.70;99.90;;;;;;5094450;28;20047;-49
2023/10/24 02:48:52;;;;;;;20.42;13.50;;;10.60;99.90;;;;;;5094400;28;20032;-48
2023/10/24 02:51:18;;;;;;;18.63;13.77;;;10.60;99.90;;;;;;5094187;28;20043;-47
2023/10/24 02:53:43;;;;;;;19.65;13.43;;;10.70;99.90;;;;;;5094164;28;20528;-48
2023/10/24 02:56:09;;;;;;;21.25;14.82;;;10.70;99.90;;;;;;5094621;28;20055;-45
2023/10/24 02:58:35;;;;;;;17.45;12.82;;;10.70;99.90;;;;;;5094142;28;20455;-47
2023/10/24 03:01:04;;;;;;;19.45;13.10;;;10.70;99.90;;;;;;5093989;28;20047;-48
2023/10/24 03:03:30;;;;;;;;;;;10.70;99.90;;;;;;5094615;28;20032;-49
2023/10/24 03:05:56;;;;;;;21.48;13.43;;;10.70;99.90;;;;;;5094293;28;19915;-46
2023/10/24 03:08:22;;;;;;;20.90;12.88;;;10.70;99.90;;;;;;5094184;28;20382;-46
2023/10/24 03:10:48;;;;;;;17.67;13.65;;;10.80;99.90;;;;;;5084396;28;20086;-51
2023/10/24 03:13:13;;;;;;;18.13;13.38;;;10.80;99.90;;;;;;5114452;28;20055;-46
2023/10/24 03:15:41;;;;;;;20.45;13.77;;;10.70;99.90;;;;;;5114280;28;20044;-47
2023/10/24 03:18:07;;;;;;;21.08;13.38;;;10.80;99.90;;;;;;5114186;28;20071;-48
2023/10/24 03:20:33;;;;;;;17.98;11.73;;;10.90;99.90;;;;;;5113515;28;20035;-46
2023/10/24 03:22:58;;;;;;;20.00;12.85;;;10.80;99.90;;;;;;5113590;28;20047;-48
2023/10/24 03:25:24;;;;;;;20.95;13.35;;;10.90;99.90;;;;;;5114529;28;20118;-47
2023/10/24 03:27:54;;;;;;;16.45;12.70;;;10.80;99.90;;;;;;5114394;28;20139;-47
2023/10/24 03:30:23;;;;;;;19.17;12.80;;;10.80;99.90;;;;;;5114049;28;20040;-52
2023/10/24 03:32:48;;;;;;;18.88;13.73;;;10.90;99.90;;;;;;5114029;28;20035;-49
2023/10/24 03:35:15;;;;;;;18.88;12.80;;;10.90;99.90;;;;;;5105599;28;20512;-47
2023/10/24 03:37:41;;;;;;;19.08;13.40;;;10.90;99.90;;;;;;5113418;28;20050;-46
2023/10/24 03:40:08;;;;;;;21.15;13.18;;;10.90;99.90;;;;;;5113959;28;20073;-47
2023/10/24 03:42:34;;;;;;;21.50;13.13;;;11.00;99.90;;;;;;5113785;28;20055;-47
2023/10/24 03:45:00;;;;;;;22.83;15.13;;;10.90;99.90;;;;;;5113834;28;20384;-49
2023/10/24 03:47:25;;;;;;;21.90;13.27;;;10.90;99.90;;;;;;5113804;28;20550;-49
2023/10/24 03:49:51;;;;;;;19.38;14.52;;;10.90;99.90;;;;;;5113432;28;20062;-47
2023/10/24 03:52:17;;;;;;;19.15;13.30;;;10.90;99.90;;;;;;5113457;28;20071;-46
2023/10/24 03:54:43;;;;;;;20.10;14.32;;;11.10;99.90;;;;;;5095351;28;20051;-48
2023/10/24 03:57:09;;;;;;;19.65;13.65;;;11.10;99.90;;;;;;5113686;28;20105;-47
2023/10/24 03:59:34;;;;;;;20.17;14.13;;;11.10;99.90;;;;;;5113403;28;20039;-47
2023/10/24 04:02:00;;;;;;;20.90;13.98;;;11.10;99.90;;;;;;5095190;28;20044;-48
2023/10/24 04:04:26;;;;;;;20.52;14.30;;;11.10;99.90;;;;;;5113152;28;20089;-48
2023/10/24 04:06:52;;;;;;;20.60;13.73;;;11.00;99.90;;;;;;5113607;28;20043;-45
2023/10/24 04:09:17;;;;;;;19.38;13.43;;;11.10;99.90;;;;;;5113166;28;20039;-47
2023/10/24 04:11:43;;;;;;;19.50;14.55;;;11.10;99.90;;;;;;5096931;28;20054;-48
2023/10/24 04:14:09;;;;;;;20.70;14.30;;;11.10;99.90;;;;;;5092966;28;20044;-46
2023/10/24 04:16:35;;;;;;;17.77;14.10;;;11.20;99.90;;;;;;5092790;28;20462;-45
2023/10/24 04:19:01;;;;;;;23.08;15.00;;;11.20;99.90;;;;;;5092728;28;20075;-47
2023/10/24 04:21:26;;;;;;;18.35;13.38;;;11.10;99.90;;;;;;5092510;28;20090;-47
2023/10/24 04:23:52;;;;;;;23.02;14.55;;;11.10;99.90;;;;;;5092949;28;20115;-47
2023/10/24 04:26:18;;;;;;;19.65;13.65;;;11.10;99.90;;;;;;5092837;28;20381;-47
2023/10/24 04:28:44;;;;;;;22.40;14.82;;;11.10;99.90;;;;;;5093000;28;20055;-50
2023/10/24 04:31:10;;;;;;;19.92;14.13;;;11.10;99.90;;;;;;5092470;28;20071;-46
2023/10/24 04:33:35;;;;;;;18.88;13.68;;;11.20;99.90;;;;;;5091934;28;20482;-48
2023/10/24 04:36:01;;;;;;;21.67;14.88;;;11.20;99.90;;;;;;5092563;28;20036;-49
2023/10/24 04:38:27;;;;;;;21.05;15.13;;;11.10;99.90;;;;;;5092465;28;20493;-47
2023/10/24 04:40:53;;;;;;;21.30;15.27;;;11.30;99.90;;;;;;5092169;28;20063;-45
2023/10/24 04:43:19;;;;;;;22.35;15.70;;;11.30;99.90;;;;;;5092296;28;20036;-46
2023/10/24 04:45:44;;;;;;;28.60;15.95;;;11.20;99.90;;;;;;5092042;28;20490;-47
2023/10/24 04:48:10;;;;;;;22.58;15.27;;;11.30;99.90;;;;;;5092207;28;20032;-46
2023/10/24 04:50:38;;;;;;;24.50;16.50;;;11.10;99.90;;;;;;5092275;28;20058;-47
2023/10/24 04:53:05;;;;;;;24.52;15.63;;;11.30;99.90;;;;;;5092320;28;20092;-47
2023/10/24 04:55:31;;;;;;;22.85;15.85;;;11.20;99.90;;;;;;5073856;28;20561;-47
2023/10/24 04:57:57;;;;;;;23.67;16.40;;;11.30;99.90;;;;;;5091982;28;20044;-48
2023/10/24 05:00:24;;;;;;;23.13;16.33;;;11.20;99.90;;;;;;5092046;28;20076;-49
2023/10/24 05:02:51;;;;;;;22.92;15.60;;;11.30;99.90;;;;;;5091831;28;20055;-48
2023/10/24 05:05:16;;;;;;;22.05;15.65;;;11.30;99.90;;;;;;5092131;28;20073;-47
2023/10/24 05:07:42;;;;;;;22.48;15.70;;;11.40;99.90;;;;;;5091797;28;20028;-47
2023/10/24 05:10:09;;;;;;;26.02;16.38;;;11.40;99.90;;;;;;5091862;28;20068;-47
2023/10/24 05:12:36;;;;;;;23.73;16.83;;;11.40;99.90;;;;;;5091774;28;20115;-47
2023/10/24 05:15:02;;;;;;;23.10;16.42;;;11.40;99.90;;;;;;5091699;28;20410;-48
2023/10/24 05:17:30;;;;;;;27.42;17.95;;;11.50;99.90;;;;;;5091447;28;20092;-48
2023/10/24 05:19:59;;;;;;;22.33;16.02;;;11.50;99.90;;;;;;5091821;28;20047;-47
2023/10/24 05:22:25;;;;;;;;;;;11.40;99.90;;;;;;5092236;28;20446;-47
2023/10/24 05:24:50;;;;;;;22.10;15.68;;;11.50;99.90;;;;;;5091716;28;19959;-47
2023/10/24 05:27:16;;;;;;;23.15;15.77;;;11.50;99.90;;;;;;5091744;28;20039;-49
2023/10/24 05:29:42;;;;;;;20.30;15.75;;;11.60;99.90;;;;;;5091465;28;20052;-51
2023/10/24 05:32:08;;;;;;;20.75;15.73;;;11.60;99.90;;;;;;5091516;28;20040;-45
2023/10/24 05:34:34;;;;;;;19.80;15.05;;;11.50;99.90;;;;;;5091690;28;20050;-47
2023/10/24 05:37:00;;;;;;;23.88;16.88;;;11.50;99.90;;;;;;5091931;28;20411;-47
2023/10/24 05:39:26;;;;;;;24.00;16.00;;;11.60;99.90;;;;;;5091553;28;20040;-45
2023/10/24 05:41:53;;;;;;;21.90;16.20;;;11.50;99.90;;;;;;5073488;28;20040;-47
2023/10/24 05:44:18;;;;;;;21.27;15.80;;;11.50;99.90;;;;;;5091819;28;20040;-48
2023/10/24 05:46:44;;;;;;;19.70;15.90;;;11.50;99.90;;;;;;5095651;28;20032;-48
2023/10/24 05:49:10;;;;;;;23.15;15.88;;;11.60;99.90;;;;;;5095487;28;20035;-47
2023/10/24 05:51:36;;;;;;;23.00;15.13;;;11.50;99.90;;;;;;5095698;28;20040;-46
2023/10/24 05:54:02;;;;;;;18.95;14.98;;;11.60;99.90;;;;;;5095318;28;20473;-47
2023/10/24 05:56:28;;;;;;;21.90;15.13;;;11.50;99.90;;;;;;5077563;28;20096;-48
2023/10/24 05:58:54;;;;;;;19.83;15.27;;;11.30;99.90;;;;;;5077129;28;20489;-47
2023/10/24 06:01:20;;;;;;;21.25;16.58;;;11.50;99.90;;;;;;5095359;28;20154;-46
2023/10/24 06:03:46;;;;;;;19.48;15.35;;;11.50;99.90;;;;;;5095346;28;20039;-48
2023/10/24 06:06:12;;;;;;;19.08;14.35;;;11.60;99.90;;;;;;5095261;28;20028;-45
2023/10/24 06:08:39;;;;;;;18.77;14.57;;;11.60;99.90;;;;;;5095457;28;20028;-46
2023/10/24 06:11:05;;;;;;;20.40;15.68;;;11.70;99.90;;;;;;5094782;28;20048;-45
2023/10/24 06:13:31;;;;;;;17.20;14.23;;;11.60;99.90;;;;;;5095211;28;20504;-45
2023/10/24 06:16:11;;;;;;;21.70;15.45;;;11.60;99.90;;;;;;5094764;28;20028;-48
2023/10/24 06:18:37;;;;;;;19.58;15.32;;;11.60;99.90;;;;;;5095282;28;20105;-48
2023/10/24 06:21:04;;;;;;;18.27;14.13;;;11.60;99.90;;;;;;5094787;28;20040;-45
2023/10/24 06:23:31;;;;;;;19.35;14.75;;;11.70;99.90;;;;;;5094976;28;20051;-46
2023/10/24 06:25:57;;;;;;;20.75;13.57;;;11.60;99.90;;;;;;5094699;28;20032;-45
2023/10/24 06:28:23;;;;;;;19.13;14.55;;;11.70;99.90;;;;;;5093650;28;20469;-46
2023/10/24 06:30:58;;;;;;;17.23;13.90;;;11.70;99.90;;;;;;5076222;28;20048;-46
2023/10/24 06:33:29;;;;;;;22.10;16.23;;;11.60;99.90;;;;;;5094536;28;20474;-47
2023/10/24 06:35:56;;;;;;;18.35;15.32;;;11.60;99.90;;;;;;5094466;28;20040;-48
2023/10/24 06:38:21;;;;;;;21.80;16.10;;;11.70;99.90;;;;;;5094359;28;20559;-47
2023/10/24 06:40:47;;;;;;;17.40;12.77;;;11.60;99.90;;;;;;5094529;28;20044;-47
2023/10/24 06:43:13;;;;;;;20.33;13.63;;;11.70;99.90;;;;;;5094709;28;20039;-48
2023/10/24 06:45:42;;;;;;;13.90;11.80;;;11.70;99.90;;;;;;5094279;28;20029;-46
2023/10/24 06:48:08;;;;;;;16.58;13.48;;;11.80;99.90;;;;;;5094641;28;20372;-45
2023/10/24 06:50:34;;;;;;;15.10;11.75;;;11.70;99.90;;;;;;5094248;28;20042;-47
2023/10/24 06:52:59;;;;;;;15.85;12.23;;;11.70;99.90;;;;;;5094430;28;20046;-46
2023/10/24 06:55:25;;;;;;;14.65;11.30;;;11.80;99.90;;;;;;5093775;28;20040;-47
2023/10/24 06:57:51;;;;;;;16.52;11.98;;;11.70;99.90;;;;;;5094330;28;20098;-46
2023/10/24 07:00:18;;;;;;;13.00;9.73;;;11.70;99.90;;;;;;5094253;28;20036;-46
2023/10/24 07:02:43;;;;;;;12.90;10.40;;;11.80;99.90;;;;;;5076258;28;20042;-49
2023/10/24 07:05:09;;;;;;;12.68;10.85;;;11.80;99.90;;;;;;5093882;28;20043;-45
2023/10/24 07:07:38;;;;;;;11.68;10.45;;;11.70;99.90;;;;;;5093761;28;20032;-47
2023/10/24 07:10:06;;;;;;;12.25;10.52;;;11.70;99.90;;;;;;5093901;28;20530;-46
2023/10/24 07:12:31;;;;;;;11.35;9.52;;;11.70;99.90;;;;;;5114415;28;20050;-45
2023/10/24 07:14:58;;;;;;;16.08;14.38;;;11.70;99.90;;;;;;5114135;28;20114;-46
2023/10/24 07:17:24;;;;;;;12.15;10.38;;;11.70;99.90;;;;;;5114036;28;20066;-46
2023/10/24 07:19:50;;;;;;;15.57;12.60;;;11.60;99.90;;;;;;5114440;28;20461;-51
2023/10/24 07:22:15;;;;;;;13.20;9.65;;;11.70;99.90;;;;;;5113957;28;20032;-45
2023/10/24 07:24:41;;;;;;;13.13;9.93;;;11.70;99.90;;;;;;5114091;28;20554;-47
2023/10/24 07:27:08;;;;;;;16.35;10.50;;;11.60;99.90;;;;;;5114063;28;20040;-48
2023/10/24 07:29:34;;;;;;;13.25;10.57;;;11.70;99.90;;;;;;5114053;28;20124;-49
2023/10/24 07:32:00;;;;;;;12.68;10.25;;;11.70;99.90;;;;;;5114019;28;20119;-48
2023/10/24 07:34:25;;;;;;;13.52;9.85;;;11.70;99.90;;;;;;5113714;28;20043;-48
2023/10/24 07:36:51;;;;;;;14.52;10.30;;;11.70;99.90;;;;;;5113704;28;20119;-47
2023/10/24 07:39:17;;;;;;;16.73;11.52;;;11.80;99.90;;;;;;5091609;28;20085;-45
2023/10/24 07:41:43;;;;;;;15.27;10.60;;;11.70;99.90;;;;;;5113594;28;20047;-46
2023/10/24 07:44:08;;;;;;;14.60;11.93;;;11.70;99.90;;;;;;5113992;28;20478;-47
2023/10/24 07:46:34;;;;;;;14.25;10.73;;;11.70;99.90;;;;;;5113290;28;20031;-46
2023/10/24 07:49:00;;;;;;;15.77;11.27;;;11.70;99.90;;;;;;5112904;28;20448;-47
2023/10/24 07:51:31;;;;;;;18.15;11.55;;;11.60;99.90;;;;;;5110651;28;20043;-50
2023/10/24 07:53:57;;;;;;;13.70;11.27;;;11.70;99.90;;;;;;5109230;27;20136;-46
2023/10/24 07:56:23;;;;;;;14.70;10.98;;;11.70;99.90;;;;;;5075475;28;20055;-46
2023/10/24 07:58:50;;;;;;;14.05;10.95;;;11.80;99.90;;;;;;5113170;28;20032;-49
2023/10/24 08:01:18;;;;;;;15.15;11.10;;;11.80;99.90;;;;;;5113132;28;20035;-50
2023/10/24 08:03:44;;;;;;;15.88;12.30;;;11.80;99.90;;;;;;5094864;28;20077;-47
2023/10/24 08:06:10;;;;;;;15.48;11.43;;;11.70;99.90;;;;;;5113319;28;20106;-46
2023/10/24 08:08:36;;;;;;;15.13;11.38;;;11.80;99.90;;;;;;5108812;28;20035;-49
2023/10/24 08:11:02;;;;;;;14.25;10.50;;;11.80;99.90;;;;;;5113140;28;20375;-46
2023/10/24 08:13:29;;;;;;;14.25;10.65;;;11.80;99.90;;;;;;5113183;28;20122;-48
2023/10/24 08:15:58;;;;;;;13.85;10.65;;;11.80;99.90;;;;;;5113157;28;20040;-46
2023/10/24 08:18:24;;;;;;;16.35;11.30;;;11.80;99.90;;;;;;5106087;28;20076;-46
2023/10/24 08:20:50;;;;;;;14.23;10.70;;;11.80;99.90;;;;;;5110365;28;20118;-47
2023/10/24 08:23:16;;;;;;;13.35;10.65;;;11.80;99.90;;;;;;5113344;28;20111;-47
2023/10/24 08:25:41;;;;;;;18.33;10.48;;;11.70;99.90;;;;;;5112824;28;20040;-46
2023/10/24 08:28:07;;;;;;;14.00;10.35;;;11.80;99.90;;;;;;5112577;28;20028;-45
2023/10/24 08:30:33;;;;;;;13.05;9.70;;;11.80;99.90;;;;;;5112607;28;20050;-48
2023/10/24 08:32:59;;;;;;;11.45;9.05;;;11.70;99.90;;;;;;5106419;28;20115;-44
2023/10/24 08:35:25;;;;;;;13.68;10.02;;;11.70;99.90;;;;;;5112423;28;20130;-50
2023/10/24 08:37:50;;;;;;;19.00;10.13;;;11.70;99.90;;;;;;5112781;28;20047;-45
2023/10/24 08:40:16;;;;;;;17.60;11.32;;;11.80;99.90;;;;;;5112484;28;20067;-47
2023/10/24 08:42:43;;;;;;;14.75;10.15;;;11.70;99.90;;;;;;5112693;28;20036;-45
2023/10/24 08:45:10;;;;;;;13.45;10.20;;;11.70;99.90;;;;;;5112395;28;20031;-49
2023/10/24 08:47:36;;;;;;;12.38;10.13;;;11.80;99.90;;;;;;5112445;28;20035;-49
2023/10/24 08:50:03;;;;;;;18.90;11.05;;;11.70;99.90;;;;;;5112566;28;20431;-49
2023/10/24 08:52:32;;;;;;;14.18;10.68;;;11.80;99.90;;;;;;5112739;28;20032;-47
2023/10/24 08:55:06;;;;;;;17.10;10.98;;;11.80;99.90;;;;;;5112335;28;20063;-47
2023/10/24 08:57:42;;;;;;;14.63;10.93;;;11.80;99.90;;;;;;5111517;28;20032;-45
2023/10/24 09:00:13;;;;;;;17.15;11.05;;;11.70;99.90;;;;;;5112091;28;20080;-49
2023/10/24 09:02:41;;;;;;;13.63;10.57;;;11.70;99.90;;;;;;5112478;28;20382;-46
2023/10/24 09:05:11;;;;;;;14.98;11.50;;;11.80;99.90;;;;;;5112370;28;20133;-46
2023/10/24 09:07:37;;;;;;;17.55;11.48;;;11.80;99.90;;;;;;5112421;28;20106;-45
2023/10/24 09:10:03;;;;;;;13.75;11.30;;;11.80;99.90;;;;;;5111684;28;20111;-45
2023/10/24 09:12:30;;;;;;;15.60;11.07;;;11.80;99.90;;;;;;5112191;28;20039;-47
2023/10/24 09:14:58;;;;;;;18.10;11.93;;;11.80;99.90;;;;;;5111159;28;20035;-46
2023/10/24 09:17:24;;;;;;;16.17;12.00;;;11.80;99.90;;;;;;5111085;28;20104;-47
2023/10/24 09:19:51;;;;;;;17.75;11.88;;;11.80;99.90;;;;;;5110834;28;20039;-46
2023/10/24 09:22:17;;;;;;;18.65;12.63;;;11.90;99.90;;;;;;5112044;28;20039;-47
2023/10/24 09:24:45;;;;;;;17.73;12.85;;;11.80;99.90;;;;;;5111908;28;20486;-45
2023/10/24 09:27:12;;;;;;;16.88;12.27;;;11.80;99.90;;;;;;5109973;28;20039;-48
2023/10/24 09:29:38;;;;;;;25.70;12.93;;;11.90;99.90;;;;;;5108055;28;20128;-47
2023/10/24 09:32:04;;;;;;;17.33;12.02;;;11.80;99.90;;;;;;5113090;27;20053;-46
2023/10/24 09:34:31;;;;;;;18.58;13.13;;;11.90;99.90;;;;;;5111414;28;20047;-47
2023/10/24 09:37:07;;;;;;;16.95;12.77;;;11.80;99.90;;;;;;5119106;28;20035;-45
2023/10/24 09:39:53;;;;;;;18.20;12.80;;;11.90;99.90;;;;;;5112147;28;20792;-46
2023/10/24 09:42:24;;;;;;;17.50;13.00;;;11.90;99.90;;;;;;5109981;28;20114;-46
2023/10/24 09:44:52;;;;;;;18.38;12.13;;;11.80;99.90;;;;;;5110972;28;20085;-45
2023/10/24 09:47:19;;;;;;;19.75;11.88;;;11.80;99.90;;;;;;5112216;28;20036;-49
2023/10/24 09:49:46;;;;;;;15.20;11.48;;;11.80;99.90;;;;;;5110759;28;20501;-46
2023/10/24 09:52:12;;;;;;;14.52;11.95;;;11.80;99.90;;;;;;5111668;28;20063;-47
2023/10/24 09:54:39;;;;;;;15.73;11.82;;;11.80;99.90;;;;;;5110792;28;20040;-47
2023/10/24 09:57:05;;;;;;;17.42;12.43;;;11.80;99.90;;;;;;5111657;28;20118;-49
2023/10/24 09:59:32;;;;;;;16.33;12.77;;;11.80;99.90;;;;;;5111560;28;20350;-51
2023/10/24 10:02:03;;;;;;;15.88;12.23;;;11.80;99.90;;;;;;5111336;28;20115;-48
2023/10/24 10:04:31;;;;;;;16.88;12.32;;;11.80;99.90;;;;;;5110883;28;20036;-49
2023/10/24 10:06:58;;;;;;;15.73;11.35;;;11.80;99.90;;;;;;5111142;28;20075;-49
2023/10/24 10:09:23;;;;;;;14.30;11.20;;;11.70;99.90;;;;;;5071440;28;20510;-48
2023/10/24 10:11:52;;;;;;;16.60;12.02;;;11.80;99.90;;;;;;5111338;28;20051;-47
2023/10/24 10:14:35;;;;;;;15.73;11.67;;;11.80;99.90;;;;;;5111170;28;20043;-45
2023/10/24 10:17:08;;;;;;;17.10;12.43;;;11.80;99.90;;;;;;5111318;28;20777;-48
2023/10/24 10:19:43;;;;;;;14.32;11.85;;;11.80;99.90;;;;;;5110724;28;20090;-46
2023/10/24 10:22:52;;;;;;;17.60;12.55;;;11.80;99.90;;;;;;5099523;28;20044;-49
2023/10/24 10:25:32;;;;;;;13.55;11.20;;;11.80;99.90;;;;;;5002234;28;20460;-47
2023/10/24 10:28:03;;;;;;;13.93;11.73;;;11.80;99.90;;;;;;5111537;28;20050;-47
2023/10/24 10:30:39;;;;;;;16.27;11.88;;;11.80;99.90;;;;;;5111825;28;20570;-45
2023/10/24 10:33:13;;;;;;;16.40;12.38;;;11.80;99.90;;;;;;5101441;28;20044;-49
2023/10/24 10:35:55;;;;;;;13.55;11.32;;;11.70;99.90;;;;;;5108236;28;20423;-45
2023/10/24 10:38:40;;;;;;;13.90;11.05;;;11.80;99.90;;;;;;5108335;28;20060;-45
2023/10/24 10:41:24;;;;;;;16.05;11.80;;;11.70;99.90;;;;;;5111984;28;20039;-46
2023/10/24 10:44:05;;;;;;;12.95;10.95;;;11.80;99.90;;;;;;5096926;28;20050;-44
2023/10/24 10:46:32;;;;;;;17.85;13.10;;;11.80;99.90;;;;;;5114639;28;20124;-44
2023/10/24 10:49:03;;;;;;;15.25;11.77;;;11.80;99.90;;;;;;5114612;28;20477;-45
2023/10/24 10:51:34;;;;;;;14.13;11.30;;;11.80;99.90;;;;;;5114654;28;20071;-47
2023/10/24 10:54:19;;;;;;;14.85;11.32;;;11.90;99.90;;;;;;5114740;28;20047;-48
2023/10/24 10:56:48;;;;;;;14.23;11.77;;;12.00;99.90;;;;;;5114318;28;20040;-45
2023/10/24 10:59:32;;;;;;;;;;;12.00;99.90;;;;;;5114983;28;20039;-45
2023/10/24 11:02:01;;;;;;;12.65;10.75;;;12.00;99.90;;;;;;5114521;28;19977;-45
2023/10/24 11:04:27;;;;;;;15.68;11.55;;;12.10;99.90;;;;;;5114464;28;20488;-45
2023/10/24 11:06:57;;;;;;;16.00;11.88;;;12.10;99.90;;;;;;5114253;28;20032;-45
2023/10/24 11:09:30;;;;;;;15.48;11.65;;;12.20;99.90;;;;;;5114718;28;20034;-45
2023/10/24 11:12:20;;;;;;;14.38;12.48;;;12.20;99.90;;;;;;5098400;28;20071;-48
2023/10/24 11:15:09;;;;;;;14.68;11.50;;;12.20;99.90;;;;;;5094028;28;20445;-46
2023/10/24 11:17:36;;;;;;;16.15;11.35;;;12.20;99.90;;;;;;5094140;28;20044;-45
2023/10/24 11:20:10;;;;;;;13.27;11.57;;;12.20;99.90;;;;;;5093766;28;20048;-48
2023/10/24 11:22:39;;;;;;;15.38;12.50;;;12.20;99.90;;;;;;5093916;28;20486;-45
2023/10/24 11:25:16;;;;;;;13.95;11.30;;;12.20;99.90;;;;;;5093589;28;20036;-44
2023/10/24 11:27:42;;;;;;;15.15;12.05;;;12.20;99.90;;;;;;5094155;28;20120;-45
2023/10/24 11:30:08;;;;;;;13.60;11.75;;;12.30;99.90;;;;;;5093690;28;20032;-44
2023/10/24 11:32:34;;;;;;;14.00;11.48;;;12.30;99.90;;;;;;5093773;28;20105;-47
2023/10/24 11:35:02;;;;;;;15.57;11.95;;;12.30;99.90;;;;;;5092981;28;20036;-46
2023/10/24 11:37:28;;;;;;;15.88;12.40;;;12.30;99.90;;;;;;5093495;28;20032;-45
2023/10/24 11:39:56;;;;;;;14.85;12.15;;;12.30;99.90;;;;;;5093349;28;20477;-46
2023/10/24 11:42:22;;;;;;;12.85;10.82;;;12.30;99.90;;;;;;5092472;28;20046;-46
2023/10/24 11:44:48;;;;;;;18.73;12.65;;;12.30;99.90;;;;;;5093353;28;20040;-45
2023/10/24 11:47:14;;;;;;;14.20;12.23;;;12.40;99.90;;;;;;5093369;28;20036;-46
2023/10/24 11:49:40;;;;;;;14.20;11.80;;;12.40;99.90;;;;;;5093581;28;20036;-45
2023/10/24 11:52:06;;;;;;;16.02;12.30;;;12.40;99.90;;;;;;5093244;28;20389;-48
2023/10/24 11:54:32;;;;;;;13.60;11.32;;;12.40;99.90;;;;;;5093269;28;20067;-47
2023/10/24 11:57:00;;;;;;;14.10;11.77;;;12.50;99.90;;;;;;5093160;28;20114;-47
2023/10/24 11:59:36;;;;;;;13.25;11.50;;;12.50;99.90;;;;;;5093189;28;20067;-49
2023/10/24 12:02:03;;;;;;;14.23;11.45;;;12.50;99.90;;;;;;5093117;28;20040;-45
2023/10/24 12:04:30;;;;;;;12.73;11.05;;;12.50;99.90;;;;;;5093309;28;20060;-46
2023/10/24 12:07:08;;;;;;;15.20;11.13;;;12.50;99.90;;;;;;5075153;28;20423;-47
2023/10/24 12:09:35;;;;;;;14.50;11.35;;;12.50;99.90;;;;;;5079128;28;20511;-49
2023/10/24 12:12:04;;;;;;;12.77;11.40;;;12.50;99.90;;;;;;5092685;28;20058;-47
2023/10/24 12:14:30;;;;;;;13.20;11.63;;;12.50;99.90;;;;;;5092678;28;20055;-47
2023/10/24 12:16:59;;;;;;;12.77;11.48;;;12.50;99.90;;;;;;5092845;28;20531;-48
2023/10/24 12:19:25;;;;;;;12.80;11.45;;;12.40;99.90;;;;;;5092760;28;20455;-46
2023/10/24 12:21:52;;;;;;;12.43;11.07;;;12.50;99.90;;;;;;5092714;28;20073;-47
2023/10/24 12:24:17;;;;;;;13.95;11.90;;;12.50;99.90;;;;;;5092387;28;20075;-47
2023/10/24 12:26:43;;;;;;;12.93;11.48;;;12.50;99.90;;;;;;5092609;28;20070;-47
2023/10/24 12:29:11;;;;;;;14.70;12.25;;;12.50;99.90;;;;;;5092779;28;20036;-45